Time;durP1;ratioP1;P1;durP2;ratioP2;P2;SDS_P1;SDS_P2;PMS_P1;PMS_P2;Temp;Humidity;BMP_temperature;BMP_pressure;BME280_temperature;BME280_humidity;BME280_pressure;Samples;Min_cycle;Max_cycle;Signal;HPM_P1;HPM_P2
2023/12/11 00:00:05;;;;;;;16.38;12.57;;;;;;;;;;10065493;28;20388;-76
2023/12/11 00:04:58;;;;;;;14.90;12.05;;;;;;;;;;10065050;28;20045;-76
2023/12/11 00:09:50;;;;;;;16.15;12.40;;;;;;;;;;10065154;28;20503;-76
2023/12/11 00:14:42;;;;;;;16.33;14.38;;;;;;;;;;10065172;28;20037;-75
2023/12/11 00:19:33;;;;;;;17.27;15.48;;;;;;;;;;10064878;28;20468;-76
2023/12/11 00:24:26;;;;;;;27.48;20.52;;;;;;;;;;10064837;28;20427;-76
2023/12/11 00:29:18;;;;;;;28.98;25.70;;;;;;;;;;10063938;28;20045;-76
2023/12/11 00:34:10;;;;;;;39.72;30.65;;;;;;;;;;10065168;28;20073;-76
2023/12/11 00:39:03;;;;;;;41.85;31.55;;;;;;;;;;10064320;28;20116;-75
2023/12/11 00:43:55;;;;;;;42.90;32.70;;;;;;;;;;10072034;28;20076;-75
2023/12/11 00:48:47;;;;;;;49.55;34.80;;;;;;;;;;10071794;28;20456;-76
2023/12/11 00:53:39;;;;;;;47.67;33.38;;;;;;;;;;10071528;28;20049;-76
2023/12/11 00:58:31;;;;;;;46.10;31.83;;;;;;;;;;10071640;28;20212;-76
2023/12/11 01:03:23;;;;;;;38.30;30.10;;;;;;;;;;10071334;28;20099;-75
2023/12/11 01:08:15;;;;;;;61.65;36.05;;;;;;;;;;10070894;28;20085;-75
2023/12/11 01:13:07;;;;;;;48.20;32.95;;;;;;;;;;10071583;28;20073;-77
2023/12/11 01:17:59;;;;;;;61.47;31.90;;;;;;;;;;10070866;28;20042;-76
2023/12/11 01:22:51;;;;;;;65.05;32.67;;;;;;;;;;10070825;28;20052;-76
2023/12/11 01:27:43;;;;;;;66.90;33.53;;;;;;;;;;10070202;28;20515;-76
2023/12/11 01:32:35;;;;;;;56.38;34.20;;;;;;;;;;10070218;28;20527;-76
2023/12/11 01:37:27;;;;;;;58.75;34.55;;;;;;;;;;10070465;28;20052;-76
2023/12/11 01:42:19;;;;;;;63.42;34.67;;;;;;;;;;10070191;28;20372;-76
2023/12/11 01:47:11;;;;;;;47.42;31.58;;;;;;;;;;10069517;28;20045;-77
2023/12/11 01:52:04;;;;;;;41.70;32.03;;;;;;;;;;10067532;28;20049;-75
2023/12/11 01:56:56;;;;;;;40.95;32.42;;;;;;;;;;10069840;28;20149;-76
2023/12/11 02:01:49;;;;;;;51.72;33.33;;;;;;;;;;10068646;28;20054;-76
2023/12/11 02:06:41;;;;;;;40.75;30.60;;;;;;;;;;10069309;28;20049;-76
2023/12/11 02:11:33;;;;;;;37.20;28.17;;;;;;;;;;10068832;28;20049;-76
2023/12/11 02:16:25;;;;;;;38.92;27.67;;;;;;;;;;10069217;28;20073;-76
2023/12/11 02:21:18;;;;;;;40.03;32.25;;;;;;;;;;10068167;28;20119;-76
2023/12/11 02:26:17;;;;;;;49.55;34.17;;;;;;;;;;10067464;28;20061;-76
2023/12/11 02:31:09;;;;;;;;;;;;;;;;;;10068845;28;20457;-76
2023/12/11 02:36:01;;;;;;;40.25;30.15;;;;;;;;;;10068005;28;19924;-76
2023/12/11 02:40:53;;;;;;;42.75;29.90;;;;;;;;;;10067804;28;20048;-76
2023/12/11 02:45:45;;;;;;;39.47;30.15;;;;;;;;;;10068022;28;20475;-76
2023/12/11 02:50:37;;;;;;;48.17;34.63;;;;;;;;;;10067446;28;20042;-76
2023/12/11 02:55:30;;;;;;;64.82;38.08;;;;;;;;;;10067665;28;20080;-76
2023/12/11 03:00:22;;;;;;;73.10;37.65;;;;;;;;;;10067346;28;20415;-76
2023/12/11 03:05:14;;;;;;;119.47;40.53;;;;;;;;;;10067142;28;20140;-76
2023/12/11 03:10:06;;;;;;;246.90;44.78;;;;;;;;;;10066873;28;20049;-75
2023/12/11 03:14:58;;;;;;;172.32;36.80;;;;;;;;;;10067085;28;20092;-76
2023/12/11 03:19:50;;;;;;;136.70;39.67;;;;;;;;;;10066589;28;20075;-76
2023/12/11 03:24:42;;;;;;;98.45;32.92;;;;;;;;;;10066496;28;20077;-76
2023/12/11 03:29:33;;;;;;;119.60;36.33;;;;;;;;;;10066463;28;20045;-76
2023/12/11 03:34:25;;;;;;;142.82;34.92;;;;;;;;;;10066419;28;20091;-75
2023/12/11 03:39:17;;;;;;;134.32;34.38;;;;;;;;;;10065670;28;20111;-76
2023/12/11 03:44:09;;;;;;;129.73;36.42;;;;;;;;;;10065228;28;20468;-76
2023/12/11 03:49:01;;;;;;;130.55;38.42;;;;;;;;;;10064695;28;20128;-77
2023/12/11 03:53:53;;;;;;;102.95;35.13;;;;;;;;;;10066370;28;20364;-76
2023/12/11 03:58:45;;;;;;;70.03;32.92;;;;;;;;;;10065568;28;20107;-76
2023/12/11 04:03:37;;;;;;;47.58;33.75;;;;;;;;;;10066382;28;20041;-76
2023/12/11 04:08:29;;;;;;;85.47;36.47;;;;;;;;;;10065650;28;20045;-76
2023/12/11 04:13:21;;;;;;;102.05;36.22;;;;;;;;;;10065642;28;20103;-75
2023/12/11 04:18:12;;;;;;;69.50;32.70;;;;;;;;;;10071432;28;20077;-76
2023/12/11 04:23:04;;;;;;;60.50;35.42;;;;;;;;;;10073412;28;20049;-76
2023/12/11 04:27:56;;;;;;;61.53;38.55;;;;;;;;;;10072783;28;20452;-75
2023/12/11 04:32:48;;;;;;;54.33;33.25;;;;;;;;;;10071484;28;20116;-75
2023/12/11 04:37:40;;;;;;;45.70;30.40;;;;;;;;;;10072987;28;20052;-76
2023/12/11 04:42:32;;;;;;;33.72;27.45;;;;;;;;;;10072530;28;20563;-76
2023/12/11 04:47:24;;;;;;;33.67;26.27;;;;;;;;;;10072358;28;20052;-76
2023/12/11 04:52:17;;;;;;;37.78;26.77;;;;;;;;;;10071959;28;20053;-76
2023/12/11 04:57:09;;;;;;;57.55;36.95;;;;;;;;;;10072337;28;20051;-76
2023/12/11 05:02:01;;;;;;;92.25;38.00;;;;;;;;;;10071621;28;20046;-76
2023/12/11 05:06:53;;;;;;;72.40;37.70;;;;;;;;;;10072340;28;20041;-76
2023/12/11 05:11:45;;;;;;;63.50;40.05;;;;;;;;;;10071188;28;20351;-76
2023/12/11 05:16:37;;;;;;;79.25;37.15;;;;;;;;;;10071790;28;20080;-76
2023/12/11 05:21:29;;;;;;;71.50;36.25;;;;;;;;;;10070964;28;20048;-76
2023/12/11 05:26:21;;;;;;;91.05;35.90;;;;;;;;;;10069586;28;20530;-76
2023/12/11 05:31:13;;;;;;;71.88;36.72;;;;;;;;;;10070112;28;20053;-76
2023/12/11 05:36:06;;;;;;;63.17;33.85;;;;;;;;;;10071154;28;20041;-76
2023/12/11 05:40:58;;;;;;;45.47;29.00;;;;;;;;;;10069040;28;20095;-76
2023/12/11 05:45:50;;;;;;;34.15;26.13;;;;;;;;;;10070436;28;20045;-76
2023/12/11 05:50:41;;;;;;;30.70;24.95;;;;;;;;;;10069740;28;20053;-75
2023/12/11 05:55:33;;;;;;;28.75;24.08;;;;;;;;;;10069992;28;20448;-76
2023/12/11 06:00:26;;;;;;;35.47;28.38;;;;;;;;;;10069679;28;20046;-76
2023/12/11 06:05:18;;;;;;;34.10;26.25;;;;;;;;;;10069716;28;20519;-76
2023/12/11 06:10:10;;;;;;;31.40;26.30;;;;;;;;;;10069418;28;20045;-77
2023/12/11 06:15:01;;;;;;;29.77;24.30;;;;;;;;;;10069449;28;20046;-76
2023/12/11 06:19:53;;;;;;;33.63;25.60;;;;;;;;;;10068767;28;20046;-77
2023/12/11 06:24:45;;;;;;;35.45;25.05;;;;;;;;;;10068695;28;20052;-76
2023/12/11 06:29:38;;;;;;;28.88;23.17;;;;;;;;;;10068528;28;20049;-76
2023/12/11 06:34:30;;;;;;;33.60;27.10;;;;;;;;;;10068053;28;20041;-75
2023/12/11 06:39:23;;;;;;;49.53;25.48;;;;;;;;;;10067634;28;20413;-77
2023/12/11 06:44:14;;;;;;;32.22;26.23;;;;;;;;;;10068089;28;20314;-76
2023/12/11 06:49:06;;;;;;;99.30;27.60;;;;;;;;;;10068272;28;20460;-76
2023/12/11 06:53:58;;;;;;;37.00;25.08;;;;;;;;;;10067467;28;20416;-76
2023/12/11 06:58:51;;;;;;;89.93;27.55;;;;;;;;;;10068121;28;20308;-76
2023/12/11 07:03:45;;;;;;;45.53;27.15;;;;;;;;;;10067486;28;20407;-76
2023/12/11 07:08:37;;;;;;;77.53;27.58;;;;;;;;;;10067642;28;20068;-76
2023/12/11 07:13:29;;;;;;;45.28;26.75;;;;;;;;;;10067746;28;20045;-77
2023/12/11 07:18:22;;;;;;;101.97;30.20;;;;;;;;;;10067054;28;20145;-76
2023/12/11 07:23:14;;;;;;;82.70;23.20;;;;;;;;;;10066737;28;20115;-75
2023/12/11 07:28:06;;;;;;;76.78;28.90;;;;;;;;;;10066321;28;20423;-76
2023/12/11 07:32:58;;;;;;;77.28;26.73;;;;;;;;;;10066740;28;20099;-76
2023/12/11 07:37:50;;;;;;;46.28;23.92;;;;;;;;;;10066402;28;20041;-76
2023/12/11 07:42:42;;;;;;;53.42;26.77;;;;;;;;;;10066422;28;20061;-76
2023/12/11 07:47:34;;;;;;;42.25;24.52;;;;;;;;;;10066360;28;20056;-76
2023/12/11 07:52:30;;;;;;;39.92;27.40;;;;;;;;;;10065503;28;20049;-76
2023/12/11 07:57:25;;;;;;;29.63;24.60;;;;;;;;;;10065943;28;20099;-76
2023/12/11 08:02:17;;;;;;;38.45;24.50;;;;;;;;;;10066123;28;20045;-76
2023/12/11 08:07:09;;;;;;;42.53;28.75;;;;;;;;;;10066242;28;20051;-76
2023/12/11 08:12:05;;;;;;;51.38;31.52;;;;;;;;;;10065597;28;20480;-76
2023/12/11 08:16:58;;;;;;;63.72;35.80;;;;;;;;;;10066203;28;20053;-77
2023/12/11 08:21:50;;;;;;;65.15;38.55;;;;;;;;;;10065610;28;20077;-76
2023/12/11 08:26:43;;;;;;;81.78;45.30;;;;;;;;;;10065735;28;20376;-77
2023/12/11 08:31:35;;;;;;;66.15;42.63;;;;;;;;;;10065655;28;20053;-76
2023/12/11 08:36:27;;;;;;;93.70;44.97;;;;;;;;;;10065764;28;20057;-75
2023/12/11 08:41:19;;;;;;;84.95;41.65;;;;;;;;;;10064866;28;20099;-75
2023/12/11 08:46:11;;;;;;;67.00;44.80;;;;;;;;;;10065185;28;20054;-75
2023/12/11 08:51:03;;;;;;;95.47;44.30;;;;;;;;;;10064928;28;20115;-74
2023/12/11 08:55:55;;;;;;;91.90;50.67;;;;;;;;;;10064474;28;20049;-75
2023/12/11 09:00:47;;;;;;;95.22;51.25;;;;;;;;;;10065732;28;20095;-75
2023/12/11 09:05:39;;;;;;;137.93;61.97;;;;;;;;;;10071831;28;20044;-75
2023/12/11 09:10:31;;;;;;;102.88;52.13;;;;;;;;;;10071758;28;20480;-75
2023/12/11 09:15:23;;;;;;;82.47;50.45;;;;;;;;;;10071306;28;20060;-75
2023/12/11 09:20:15;;;;;;;94.97;53.70;;;;;;;;;;10071827;28;20095;-75
2023/12/11 09:25:07;;;;;;;92.93;49.08;;;;;;;;;;10071300;28;20073;-75
2023/12/11 09:29:59;;;;;;;90.25;48.78;;;;;;;;;;10070747;28;20053;-75
2023/12/11 09:34:51;;;;;;;115.55;51.45;;;;;;;;;;10071152;28;20046;-74
2023/12/11 09:39:43;;;;;;;99.70;56.28;;;;;;;;;;10070722;28;20045;-76
2023/12/11 09:44:36;;;;;;;90.82;52.60;;;;;;;;;;10070714;28;20052;-75
2023/12/11 09:49:28;;;;;;;95.57;53.83;;;;;;;;;;10069999;28;20077;-75
2023/12/11 09:54:20;;;;;;;101.68;55.17;;;;;;;;;;10070211;28;20045;-75
2023/12/11 09:59:13;;;;;;;89.70;52.25;;;;;;;;;;10069686;28;20435;-75
2023/12/11 10:04:06;;;;;;;95.05;54.55;;;;;;;;;;10069785;28;20042;-75
2023/12/11 10:08:58;;;;;;;85.47;53.38;;;;;;;;;;10069510;28;20409;-75
2023/12/11 10:13:50;;;;;;;69.00;45.42;;;;;;;;;;10068316;28;20045;-75
2023/12/11 10:18:48;;;;;;;78.63;47.33;;;;;;;;;;10069091;28;20368;-75
2023/12/11 10:23:41;;;;;;;69.30;42.78;;;;;;;;;;10019084;28;20042;-75
2023/12/11 10:28:33;;;;;;;70.60;44.38;;;;;;;;;;9988087;28;20568;-74
2023/12/11 10:33:26;;;;;;;62.95;41.53;;;;;;;;;;9949433;28;20466;-75
2023/12/11 10:38:21;;;;;;;65.93;39.00;;;;;;;;;;9998696;22;20078;-75
2023/12/11 10:43:13;;;;;;;44.97;31.77;;;;;;;;;;9981599;28;20045;-76
2023/12/11 10:48:06;;;;;;;45.72;32.58;;;;;;;;;;9985707;28;20519;-76
2023/12/11 10:53:03;;;;;;;44.78;35.40;;;;;;;;;;9983856;28;20455;-75
2023/12/11 10:57:58;;;;;;;53.88;38.28;;;;;;;;;;9984914;28;20050;-77
2023/12/11 11:02:52;;;;;;;50.15;38.28;;;;;;;;;;9989076;28;20381;-77
2023/12/11 11:08:07;;;;;;;46.78;35.20;;;;;;;;;;9987513;28;20046;-77
2023/12/11 11:13:05;;;;;;;36.53;31.02;;;;;;;;;;9969936;28;20105;-77
2023/12/11 11:18:01;;;;;;;36.67;30.10;;;;;;;;;;9987009;28;20042;-77
2023/12/11 11:23:13;;;;;;;39.15;29.48;;;;;;;;;;9988641;28;20468;-77
2023/12/11 11:28:06;;;;;;;39.13;33.20;;;;;;;;;;9986895;28;20118;-77
2023/12/11 11:33:04;;;;;;;34.75;30.20;;;;;;;;;;9988092;28;20362;-77
2023/12/11 11:37:57;;;;;;;36.92;32.22;;;;;;;;;;9987366;28;20061;-77
2023/12/11 11:42:49;;;;;;;38.90;30.27;;;;;;;;;;9987590;28;20046;-77
2023/12/11 11:47:41;;;;;;;41.33;32.33;;;;;;;;;;9986941;28;20346;-77
2023/12/11 11:52:35;;;;;;;46.53;36.45;;;;;;;;;;9985910;28;20496;-77
2023/12/11 11:57:28;;;;;;;49.25;39.45;;;;;;;;;;9986546;28;20125;-77
2023/12/11 12:02:24;;;;;;;63.08;45.05;;;;;;;;;;9986186;28;20614;-76
2023/12/11 12:07:16;;;;;;;55.28;41.00;;;;;;;;;;9985609;28;20047;-77
2023/12/11 12:12:15;;;;;;;59.85;42.97;;;;;;;;;;9984924;28;20056;-77
2023/12/11 12:17:10;;;;;;;77.65;50.95;;;;;;;;;;9985828;28;20085;-76
2023/12/11 12:22:03;;;;;;;69.60;46.83;;;;;;;;;;9985235;28;20046;-76
2023/12/11 12:26:59;;;;;;;84.50;58.15;;;;;;;;;;9985703;28;20380;-74
2023/12/11 12:31:51;;;;;;;88.53;58.47;;;;;;;;;;9983797;28;20050;-77
2023/12/11 12:36:43;;;;;;;79.22;56.08;;;;;;;;;;9986983;28;20070;-75
2023/12/11 12:41:35;;;;;;;75.63;52.55;;;;;;;;;;9991325;28;20066;-76
2023/12/11 12:46:48;;;;;;;70.10;51.25;;;;;;;;;;9991605;28;20093;-76
2023/12/11 12:51:43;;;;;;;53.47;39.38;;;;;;;;;;9991406;28;20050;-77
2023/12/11 12:56:35;;;;;;;55.88;42.05;;;;;;;;;;9991999;28;20047;-77
2023/12/11 13:01:27;;;;;;;58.33;45.25;;;;;;;;;;9991514;28;20197;-77
2023/12/11 13:06:25;;;;;;;62.55;44.08;;;;;;;;;;9991417;28;20038;-75
2023/12/11 13:11:17;;;;;;;49.45;39.30;;;;;;;;;;9991213;28;20046;-77
2023/12/11 13:16:09;;;;;;;50.15;37.53;;;;;;;;;;9990958;28;20053;-76
2023/12/11 13:21:02;;;;;;;50.67;36.13;;;;;;;;;;9990022;28;20145;-75
2023/12/11 13:25:54;;;;;;;63.17;41.63;;;;;;;;;;9990721;28;20100;-77
2023/12/11 13:30:46;;;;;;;61.15;43.58;;;;;;;;;;9988639;28;20377;-77
2023/12/11 13:35:38;;;;;;;54.03;42.70;;;;;;;;;;9990670;28;20053;-77
2023/12/11 13:40:29;;;;;;;61.17;46.92;;;;;;;;;;10004427;28;20077;-75
2023/12/11 13:45:21;;;;;;;66.47;50.38;;;;;;;;;;9989418;28;20163;-77
2023/12/11 13:50:13;;;;;;;57.90;45.75;;;;;;;;;;9988884;28;20388;-78
2023/12/11 13:55:06;;;;;;;51.47;41.25;;;;;;;;;;9989566;28;20046;-74
2023/12/11 13:59:58;;;;;;;52.42;39.20;;;;;;;;;;9989774;28;20072;-75
2023/12/11 14:04:51;;;;;;;48.60;39.40;;;;;;;;;;9989517;28;20060;-75
2023/12/11 14:09:43;;;;;;;50.92;38.92;;;;;;;;;;9989050;28;20141;-74
2023/12/11 14:14:36;;;;;;;43.25;36.22;;;;;;;;;;9988904;28;20050;-75
2023/12/11 14:19:30;;;;;;;44.55;35.67;;;;;;;;;;9988682;28;20385;-75
2023/12/11 14:24:25;;;;;;;44.15;35.88;;;;;;;;;;9989445;28;20100;-75
2023/12/11 14:29:17;;;;;;;50.40;38.97;;;;;;;;;;9988201;28;20369;-74
2023/12/11 14:34:09;;;;;;;51.95;38.97;;;;;;;;;;9988813;28;20070;-75
2023/12/11 14:39:01;;;;;;;83.60;58.65;;;;;;;;;;9988158;28;20492;-75
2023/12/11 14:43:53;;;;;;;54.03;42.75;;;;;;;;;;9988108;28;20389;-77
2023/12/11 14:48:45;;;;;;;51.40;41.65;;;;;;;;;;9988207;28;20046;-77
2023/12/11 14:53:37;;;;;;;62.78;48.22;;;;;;;;;;9986544;28;20054;-77
2023/12/11 14:58:33;;;;;;;62.75;48.78;;;;;;;;;;9987849;28;20402;-77
2023/12/11 15:03:25;;;;;;;54.80;43.55;;;;;;;;;;9987365;28;20046;-77
2023/12/11 15:08:18;;;;;;;64.22;50.67;;;;;;;;;;9987711;28;20077;-77
2023/12/11 15:13:11;;;;;;;60.13;47.58;;;;;;;;;;9987237;28;20058;-76
2023/12/11 15:18:05;;;;;;;65.57;46.00;;;;;;;;;;9986810;28;20053;-77
2023/12/11 15:22:57;;;;;;;52.05;43.58;;;;;;;;;;9987137;28;20481;-77
2023/12/11 15:27:49;;;;;;;60.85;43.75;;;;;;;;;;9986726;28;20141;-77
2023/12/11 15:32:47;;;;;;;64.75;51.42;;;;;;;;;;9986457;28;20053;-77
2023/12/11 15:37:40;;;;;;;64.82;55.25;;;;;;;;;;9986574;28;20050;-77
2023/12/11 15:42:32;;;;;;;50.40;44.33;;;;;;;;;;9986134;28;20060;-77
2023/12/11 15:47:23;;;;;;;66.97;54.00;;;;;;;;;;9986505;28;20046;-77
2023/12/11 15:52:15;;;;;;;61.72;51.38;;;;;;;;;;9985675;28;20053;-75
2023/12/11 15:57:07;;;;;;;59.97;48.13;;;;;;;;;;9986491;28;20141;-75
2023/12/11 16:01:59;;;;;;;51.50;40.20;;;;;;;;;;9985606;28;20050;-75
2023/12/11 16:06:51;;;;;;;71.90;50.13;;;;;;;;;;9986073;28;20186;-75
2023/12/11 16:11:44;;;;;;;66.25;49.60;;;;;;;;;;9987537;28;20085;-75
2023/12/11 16:16:37;;;;;;;58.25;45.42;;;;;;;;;;9993715;28;20388;-75
2023/12/11 16:21:36;;;;;;;55.95;44.70;;;;;;;;;;9993286;28;20046;-76
2023/12/11 16:26:29;;;;;;;56.03;45.25;;;;;;;;;;9993921;28;20417;-75
2023/12/11 16:31:22;;;;;;;47.25;40.70;;;;;;;;;;9992465;28;20058;-75
2023/12/11 16:36:14;;;;;;;61.72;49.13;;;;;;;;;;9993223;28;20041;-75
2023/12/11 16:41:06;;;;;;;61.78;49.08;;;;;;;;;;9991690;28;20047;-75
2023/12/11 16:45:59;;;;;;;56.65;42.90;;;;;;;;;;9992659;28;20050;-77
2023/12/11 16:50:51;;;;;;;53.78;41.33;;;;;;;;;;9992165;28;20112;-75
2023/12/11 16:55:43;;;;;;;48.70;39.83;;;;;;;;;;9992000;28;20085;-74
2023/12/11 17:00:35;;;;;;;43.45;35.03;;;;;;;;;;9992130;28;20265;-76
2023/12/11 17:05:27;;;;;;;54.97;38.90;;;;;;;;;;9992129;28;20140;-75
2023/12/11 17:10:20;;;;;;;60.70;41.97;;;;;;;;;;9991607;28;20105;-75
2023/12/11 17:15:12;;;;;;;62.97;45.90;;;;;;;;;;9991827;28;20393;-75
2023/12/11 17:20:05;;;;;;;58.55;44.85;;;;;;;;;;9991145;28;20046;-75
2023/12/11 17:24:58;;;;;;;56.78;39.30;;;;;;;;;;9990767;28;20093;-77
2023/12/11 17:29:51;;;;;;;59.28;43.30;;;;;;;;;;9990028;28;20393;-77
2023/12/11 17:34:43;;;;;;;68.63;45.92;;;;;;;;;;9990541;28;20505;-77
2023/12/11 17:39:35;;;;;;;57.03;41.17;;;;;;;;;;9989703;28;20054;-75
2023/12/11 17:44:27;;;;;;;55.35;42.42;;;;;;;;;;9990092;28;20077;-74
2023/12/11 17:49:18;;;;;;;47.42;37.15;;;;;;;;;;9989728;28;20104;-75
2023/12/11 17:54:11;;;;;;;63.55;51.45;;;;;;;;;;9989319;28;20144;-75
2023/12/11 17:59:03;;;;;;;65.70;46.72;;;;;;;;;;9989056;28;20045;-75
2023/12/11 18:03:54;;;;;;;67.80;48.30;;;;;;;;;;9989341;28;20050;-75
2023/12/11 18:08:47;;;;;;;62.38;49.53;;;;;;;;;;9988681;28;20034;-75
2023/12/11 18:13:39;;;;;;;48.17;41.17;;;;;;;;;;9988482;28;20499;-75
2023/12/11 18:18:33;;;;;;;51.30;42.13;;;;;;;;;;9988996;28;20149;-75
2023/12/11 18:23:25;;;;;;;56.55;43.85;;;;;;;;;;9988600;28;20489;-75
2023/12/11 18:28:17;;;;;;;44.45;32.58;;;;;;;;;;9987320;28;20050;-77
2023/12/11 18:33:09;;;;;;;58.55;41.30;;;;;;;;;;9986904;28;20081;-74
2023/12/11 18:38:01;;;;;;;96.75;71.65;;;;;;;;;;9987374;28;20398;-76
2023/12/11 18:42:53;;;;;;;73.75;63.60;;;;;;;;;;9986793;28;20081;-76
2023/12/11 18:47:44;;;;;;;60.03;48.92;;;;;;;;;;9987511;28;20064;-76
2023/12/11 18:52:37;;;;;;;54.47;43.50;;;;;;;;;;9987071;28;20046;-76
2023/12/11 18:57:29;;;;;;;62.05;47.67;;;;;;;;;;9986558;28;20425;-76
2023/12/11 19:02:21;;;;;;;59.78;45.60;;;;;;;;;;9986219;28;20047;-75
2023/12/11 19:07:13;;;;;;;63.20;51.55;;;;;;;;;;9985903;28;20045;-75
2023/12/11 19:12:05;;;;;;;51.92;43.20;;;;;;;;;;9985275;28;20050;-76
2023/12/11 19:16:57;;;;;;;52.60;39.55;;;;;;;;;;9992183;28;52432;-76
2023/12/11 19:21:51;;;;;;;54.58;42.25;;;;;;;;;;10024187;28;20167;-76
2023/12/11 19:26:43;;;;;;;82.50;58.08;;;;;;;;;;10023893;28;20389;-76
2023/12/11 19:31:35;;;;;;;80.43;57.28;;;;;;;;;;10024590;28;20050;-76
2023/12/11 19:36:27;;;;;;;64.82;48.45;;;;;;;;;;10024936;28;20096;-76
2023/12/11 19:41:19;;;;;;;104.57;58.45;;;;;;;;;;10024797;28;20108;-74
2023/12/11 19:46:11;;;;;;;71.13;47.47;;;;;;;;;;10023400;28;20160;-75
2023/12/11 19:51:11;;;;;;;47.17;34.47;;;;;;;;;;10024924;28;20057;-76
2023/12/11 19:56:03;;;;;;;55.20;37.60;;;;;;;;;;10024690;28;20063;-75
2023/12/11 20:00:55;;;;;;;80.65;50.22;;;;;;;;;;10025216;28;20494;-76
2023/12/11 20:05:47;;;;;;;84.63;53.63;;;;;;;;;;10024593;28;20045;-76
2023/12/11 20:10:39;;;;;;;83.82;51.35;;;;;;;;;;10024216;28;20088;-76
2023/12/11 20:15:31;;;;;;;70.57;48.72;;;;;;;;;;10024771;28;20046;-75
2023/12/11 20:20:25;;;;;;;64.28;48.00;;;;;;;;;;10024709;28;20632;-76
2023/12/11 20:25:17;;;;;;;60.42;47.30;;;;;;;;;;10024018;28;20042;-75
2023/12/11 20:30:09;;;;;;;68.05;45.72;;;;;;;;;;10024127;28;20065;-75
2023/12/11 20:35:03;;;;;;;71.90;48.58;;;;;;;;;;10024146;28;20397;-78
2023/12/11 20:39:54;;;;;;;69.18;45.35;;;;;;;;;;10023501;28;20056;-78
2023/12/11 20:44:47;;;;;;;60.15;46.08;;;;;;;;;;10024079;28;20136;-74
2023/12/11 20:49:39;;;;;;;60.45;47.28;;;;;;;;;;10023272;28;20104;-75
2023/12/11 20:54:31;;;;;;;68.90;48.00;;;;;;;;;;10024531;28;20782;-75
2023/12/11 20:59:23;;;;;;;67.47;50.25;;;;;;;;;;10028339;28;20038;-75
2023/12/11 21:04:15;;;;;;;83.72;46.05;;;;;;;;;;10030375;28;20476;-75
2023/12/11 21:09:08;;;;;;;168.38;41.90;;;;;;;;;;10030234;28;20049;-76
2023/12/11 21:14:00;;;;;;;79.60;39.65;;;;;;;;;;10030770;28;20108;-75
2023/12/11 21:18:52;;;;;;;137.10;37.90;;;;;;;;;;10029528;28;20094;-74
2023/12/11 21:23:45;;;;;;;137.73;40.70;;;;;;;;;;10030135;28;20042;-75
2023/12/11 21:28:37;;;;;;;125.10;39.25;;;;;;;;;;10029086;28;20380;-74
2023/12/11 21:33:29;;;;;;;171.18;42.10;;;;;;;;;;10029024;28;20408;-75
2023/12/11 21:38:21;;;;;;;106.93;36.35;;;;;;;;;;10028921;28;20102;-75
2023/12/11 21:43:14;;;;;;;59.67;37.08;;;;;;;;;;10028758;28;20054;-75
2023/12/11 21:48:06;;;;;;;62.47;35.72;;;;;;;;;;10029154;28;20380;-75
2023/12/11 21:52:58;;;;;;;50.25;38.10;;;;;;;;;;10029303;28;20443;-76
2023/12/11 21:57:50;;;;;;;56.67;45.75;;;;;;;;;;10028797;28;20487;-75
2023/12/11 22:02:42;;;;;;;53.53;45.55;;;;;;;;;;10028611;28;20059;-75
2023/12/11 22:07:33;;;;;;;62.95;47.28;;;;;;;;;;10028096;28;20045;-75
2023/12/11 22:12:26;;;;;;;49.13;38.72;;;;;;;;;;10027142;28;20113;-75
2023/12/11 22:17:20;;;;;;;64.53;44.65;;;;;;;;;;10028574;28;20060;-77
2023/12/11 22:22:12;;;;;;;37.35;28.15;;;;;;;;;;10028063;28;20057;-75
2023/12/11 22:27:04;;;;;;;40.70;33.08;;;;;;;;;;10028205;28;20037;-74
2023/12/11 22:31:56;;;;;;;36.97;31.90;;;;;;;;;;10027340;28;20056;-77
2023/12/11 22:36:48;;;;;;;39.35;29.95;;;;;;;;;;10027086;28;20053;-77
2023/12/11 22:41:40;;;;;;;37.78;29.75;;;;;;;;;;10026340;28;20080;-77
2023/12/11 22:46:32;;;;;;;35.58;31.65;;;;;;;;;;10026829;28;20096;-76
2023/12/11 22:51:24;;;;;;;39.60;31.58;;;;;;;;;;10026501;28;20073;-78
2023/12/11 22:56:15;;;;;;;44.53;35.47;;;;;;;;;;10026586;28;20046;-78
2023/12/11 23:07:32;;;;;;;47.92;34.53;;;;;;;;;;10026977;28;20431;-75
2023/12/11 23:12:25;;;;;;;45.42;35.47;;;;;;;;;;10026153;28;20107;-76
2023/12/11 23:17:17;;;;;;;48.42;35.63;;;;;;;;;;10026457;28;20073;-76
2023/12/11 23:22:09;;;;;;;59.15;43.80;;;;;;;;;;10025087;28;20046;-76
2023/12/11 23:27:01;;;;;;;57.47;44.13;;;;;;;;;;10024840;28;20112;-75
2023/12/11 23:31:53;;;;;;;38.50;26.45;;;;;;;;;;10025303;28;20049;-76
2023/12/11 23:36:44;;;;;;;36.63;26.90;;;;;;;;;;10024993;28;20050;-76
2023/12/11 23:41:36;;;;;;;39.40;29.13;;;;;;;;;;10025337;28;20453;-77
2023/12/11 23:46:28;;;;;;;39.47;31.25;;;;;;;;;;10025877;28;20052;-76
2023/12/11 23:51:22;;;;;;;38.00;29.70;;;;;;;;;;10024837;28;20053;-76
2023/12/11 23:56:14;;;;;;;39.70;29.95;;;;;;;;;;10025408;28;20380;-74
